sensor_id;sensor_type;location;lat;lon;timestamp;P1;durP1;ratioP1;P2;durP2;ratioP2
33505;SDS011;19843;51.040;13.782;2023-07-13T00:02:16;1.35;;;1.25;;
33505;SDS011;19843;51.040;13.782;2023-07-13T00:04:45;2.15;;;1.58;;
33505;SDS011;19843;51.040;13.782;2023-07-13T00:07:13;2.08;;;1.35;;
33505;SDS011;19843;51.040;13.782;2023-07-13T00:09:41;1.95;;;1.35;;
33505;SDS011;19843;51.040;13.782;2023-07-13T00:12:21;1.50;;;1.40;;
33505;SDS011;19843;51.040;13.782;2023-07-13T00:14:50;2.60;;;1.70;;
33505;SDS011;19843;51.040;13.782;2023-07-13T00:17:18;1.27;;;1.17;;
33505;SDS011;19843;51.040;13.782;2023-07-13T00:19:46;2.03;;;1.50;;
33505;SDS011;19843;51.040;13.782;2023-07-13T00:22:14;1.95;;;1.77;;
33505;SDS011;19843;51.040;13.782;2023-07-13T00:24:42;2.63;;;1.35;;
33505;SDS011;19843;51.040;13.782;2023-07-13T00:27:09;1.40;;;1.30;;
33505;SDS011;19843;51.040;13.782;2023-07-13T00:29:37;1.45;;;1.35;;
33505;SDS011;19843;51.040;13.782;2023-07-13T00:32:05;1.85;;;1.17;;
33505;SDS011;19843;51.040;13.782;2023-07-13T00:34:35;2.00;;;1.80;;
33505;SDS011;19843;51.040;13.782;2023-07-13T00:37:05;2.35;;;1.90;;
33505;SDS011;19843;51.040;13.782;2023-07-13T00:39:34;3.05;;;1.90;;
33505;SDS011;19843;51.040;13.782;2023-07-13T00:42:02;1.45;;;1.35;;
33505;SDS011;19843;51.040;13.782;2023-07-13T00:44:30;2.17;;;1.65;;
33505;SDS011;19843;51.040;13.782;2023-07-13T00:46:58;1.58;;;1.48;;
33505;SDS011;19843;51.040;13.782;2023-07-13T00:49:27;2.45;;;1.83;;
33505;SDS011;19843;51.040;13.782;2023-07-13T00:51:57;1.85;;;1.55;;
33505;SDS011;19843;51.040;13.782;2023-07-13T00:54:29;1.67;;;1.58;;
33505;SDS011;19843;51.040;13.782;2023-07-13T00:57:00;2.20;;;2.00;;
33505;SDS011;19843;51.040;13.782;2023-07-13T00:59:31;3.80;;;1.90;;
33505;SDS011;19843;51.040;13.782;2023-07-13T01:02:00;2.85;;;1.63;;
33505;SDS011;19843;51.040;13.782;2023-07-13T01:04:28;3.17;;;1.80;;
33505;SDS011;19843;51.040;13.782;2023-07-13T01:06:56;2.25;;;1.70;;
33505;SDS011;19843;51.040;13.782;2023-07-13T01:09:25;2.10;;;1.88;;
33505;SDS011;19843;51.040;13.782;2023-07-13T01:11:55;1.92;;;1.70;;
33505;SDS011;19843;51.040;13.782;2023-07-13T01:14:23;2.30;;;1.92;;
33505;SDS011;19843;51.040;13.782;2023-07-13T01:16:50;4.78;;;2.17;;
33505;SDS011;19843;51.040;13.782;2023-07-13T01:19:22;2.00;;;1.75;;
33505;SDS011;19843;51.040;13.782;2023-07-13T01:22:04;2.13;;;1.80;;
33505;SDS011;19843;51.040;13.782;2023-07-13T01:24:35;2.50;;;1.83;;
33505;SDS011;19843;51.040;13.782;2023-07-13T01:27:03;3.00;;;2.17;;
33505;SDS011;19843;51.040;13.782;2023-07-13T01:29:33;1.98;;;1.88;;
33505;SDS011;19843;51.040;13.782;2023-07-13T01:32:08;2.08;;;1.73;;
33505;SDS011;19843;51.040;13.782;2023-07-13T01:34:37;3.38;;;1.90;;
33505;SDS011;19843;51.040;13.782;2023-07-13T01:37:10;2.28;;;2.08;;
33505;SDS011;19843;51.040;13.782;2023-07-13T01:39:39;3.00;;;2.10;;
33505;SDS011;19843;51.040;13.782;2023-07-13T01:42:07;2.15;;;1.95;;
33505;SDS011;19843;51.040;13.782;2023-07-13T01:44:35;4.97;;;2.88;;
33505;SDS011;19843;51.040;13.782;2023-07-13T01:47:02;2.75;;;2.03;;
33505;SDS011;19843;51.040;13.782;2023-07-13T01:49:30;3.10;;;2.15;;
33505;SDS011;19843;51.040;13.782;2023-07-13T01:51:57;4.05;;;2.15;;
33505;SDS011;19843;51.040;13.782;2023-07-13T01:54:26;2.78;;;2.08;;
33505;SDS011;19843;51.040;13.782;2023-07-13T01:56:54;2.10;;;1.98;;
33505;SDS011;19843;51.040;13.782;2023-07-13T01:59:21;2.95;;;2.25;;
33505;SDS011;19843;51.040;13.782;2023-07-13T02:01:49;6.90;;;2.45;;
33505;SDS011;19843;51.040;13.782;2023-07-13T02:04:16;3.45;;;2.40;;
33505;SDS011;19843;51.040;13.782;2023-07-13T02:06:44;3.03;;;2.50;;
33505;SDS011;19843;51.040;13.782;2023-07-13T02:09:11;2.00;;;1.90;;
33505;SDS011;19843;51.040;13.782;2023-07-13T02:11:40;2.40;;;2.20;;
33505;SDS011;19843;51.040;13.782;2023-07-13T02:14:07;2.40;;;2.05;;
33505;SDS011;19843;51.040;13.782;2023-07-13T02:16:35;2.55;;;2.28;;
33505;SDS011;19843;51.040;13.782;2023-07-13T02:19:03;2.97;;;2.70;;
33505;SDS011;19843;51.040;13.782;2023-07-13T02:21:30;2.05;;;1.85;;
33505;SDS011;19843;51.040;13.782;2023-07-13T02:23:58;3.20;;;2.30;;
33505;SDS011;19843;51.040;13.782;2023-07-13T02:26:26;2.28;;;1.95;;
33505;SDS011;19843;51.040;13.782;2023-07-13T02:28:54;2.95;;;2.17;;
33505;SDS011;19843;51.040;13.782;2023-07-13T02:31:22;2.90;;;2.38;;
33505;SDS011;19843;51.040;13.782;2023-07-13T02:33:49;2.60;;;2.30;;
33505;SDS011;19843;51.040;13.782;2023-07-13T02:36:17;6.18;;;2.50;;
33505;SDS011;19843;51.040;13.782;2023-07-13T02:38:46;2.83;;;2.00;;
33505;SDS011;19843;51.040;13.782;2023-07-13T02:41:14;2.83;;;2.42;;
33505;SDS011;19843;51.040;13.782;2023-07-13T02:43:41;5.15;;;2.38;;
33505;SDS011;19843;51.040;13.782;2023-07-13T02:46:10;3.30;;;2.42;;
33505;SDS011;19843;51.040;13.782;2023-07-13T02:48:38;2.33;;;2.13;;
33505;SDS011;19843;51.040;13.782;2023-07-13T02:51:06;2.60;;;2.20;;
33505;SDS011;19843;51.040;13.782;2023-07-13T02:53:34;3.10;;;2.50;;
33505;SDS011;19843;51.040;13.782;2023-07-13T02:56:02;3.60;;;2.90;;
33505;SDS011;19843;51.040;13.782;2023-07-13T02:58:30;3.42;;;2.33;;
33505;SDS011;19843;51.040;13.782;2023-07-13T03:00:58;4.60;;;2.85;;
33505;SDS011;19843;51.040;13.782;2023-07-13T03:03:27;3.25;;;2.42;;
33505;SDS011;19843;51.040;13.782;2023-07-13T03:05:58;4.55;;;2.58;;
33505;SDS011;19843;51.040;13.782;2023-07-13T03:08:28;3.13;;;2.72;;
33505;SDS011;19843;51.040;13.782;2023-07-13T03:10:59;3.88;;;2.20;;
33505;SDS011;19843;51.040;13.782;2023-07-13T03:13:27;2.30;;;2.10;;
33505;SDS011;19843;51.040;13.782;2023-07-13T03:15:55;2.92;;;2.28;;
33505;SDS011;19843;51.040;13.782;2023-07-13T03:18:23;5.78;;;3.20;;
33505;SDS011;19843;51.040;13.782;2023-07-13T03:20:53;2.72;;;2.47;;
33505;SDS011;19843;51.040;13.782;2023-07-13T03:23:20;3.60;;;2.38;;
33505;SDS011;19843;51.040;13.782;2023-07-13T03:25:49;3.40;;;2.63;;
33505;SDS011;19843;51.040;13.782;2023-07-13T03:28:16;3.42;;;2.80;;
33505;SDS011;19843;51.040;13.782;2023-07-13T03:30:44;3.83;;;2.88;;
33505;SDS011;19843;51.040;13.782;2023-07-13T03:33:11;3.97;;;2.72;;
33505;SDS011;19843;51.040;13.782;2023-07-13T03:35:40;3.42;;;2.50;;
33505;SDS011;19843;51.040;13.782;2023-07-13T03:38:09;3.25;;;2.58;;
33505;SDS011;19843;51.040;13.782;2023-07-13T03:40:37;5.38;;;2.75;;
33505;SDS011;19843;51.040;13.782;2023-07-13T03:43:04;3.22;;;2.45;;
33505;SDS011;19843;51.040;13.782;2023-07-13T03:45:31;2.92;;;2.70;;
33505;SDS011;19843;51.040;13.782;2023-07-13T03:47:59;2.53;;;2.33;;
33505;SDS011;19843;51.040;13.782;2023-07-13T03:50:26;2.83;;;2.45;;
33505;SDS011;19843;51.040;13.782;2023-07-13T03:52:54;3.88;;;2.78;;
33505;SDS011;19843;51.040;13.782;2023-07-13T03:55:23;3.58;;;2.53;;
33505;SDS011;19843;51.040;13.782;2023-07-13T03:57:59;3.88;;;2.50;;
33505;SDS011;19843;51.040;13.782;2023-07-13T04:00:27;2.95;;;2.53;;
33505;SDS011;19843;51.040;13.782;2023-07-13T04:02:54;3.00;;;2.60;;
33505;SDS011;19843;51.040;13.782;2023-07-13T04:05:22;4.68;;;2.75;;
33505;SDS011;19843;51.040;13.782;2023-07-13T04:07:49;2.92;;;2.47;;
33505;SDS011;19843;51.040;13.782;2023-07-13T04:10:17;2.95;;;2.70;;
33505;SDS011;19843;51.040;13.782;2023-07-13T04:12:45;3.10;;;2.63;;
33505;SDS011;19843;51.040;13.782;2023-07-13T04:15:13;3.55;;;2.65;;
33505;SDS011;19843;51.040;13.782;2023-07-13T04:17:41;2.75;;;2.55;;
33505;SDS011;19843;51.040;13.782;2023-07-13T04:20:08;2.80;;;2.58;;
33505;SDS011;19843;51.040;13.782;2023-07-13T04:22:36;5.32;;;2.65;;
33505;SDS011;19843;51.040;13.782;2023-07-13T04:25:04;2.53;;;2.33;;
33505;SDS011;19843;51.040;13.782;2023-07-13T04:27:32;3.95;;;2.80;;
33505;SDS011;19843;51.040;13.782;2023-07-13T04:30:01;3.40;;;2.95;;
33505;SDS011;19843;51.040;13.782;2023-07-13T04:32:28;2.85;;;2.58;;
33505;SDS011;19843;51.040;13.782;2023-07-13T04:34:56;2.55;;;2.20;;
33505;SDS011;19843;51.040;13.782;2023-07-13T04:37:25;2.80;;;2.60;;
33505;SDS011;19843;51.040;13.782;2023-07-13T04:39:53;3.30;;;2.63;;
33505;SDS011;19843;51.040;13.782;2023-07-13T04:42:20;6.63;;;2.25;;
33505;SDS011;19843;51.040;13.782;2023-07-13T04:44:48;3.00;;;2.63;;
33505;SDS011;19843;51.040;13.782;2023-07-13T04:47:17;3.75;;;2.40;;
33505;SDS011;19843;51.040;13.782;2023-07-13T04:49:45;4.63;;;2.80;;
33505;SDS011;19843;51.040;13.782;2023-07-13T04:52:12;2.97;;;2.78;;
33505;SDS011;19843;51.040;13.782;2023-07-13T04:54:40;3.35;;;2.70;;
33505;SDS011;19843;51.040;13.782;2023-07-13T04:57:08;4.88;;;2.55;;
33505;SDS011;19843;51.040;13.782;2023-07-13T04:59:35;2.90;;;2.65;;
33505;SDS011;19843;51.040;13.782;2023-07-13T05:02:03;3.47;;;2.97;;
33505;SDS011;19843;51.040;13.782;2023-07-13T05:04:33;3.78;;;2.80;;
33505;SDS011;19843;51.040;13.782;2023-07-13T05:07:00;5.22;;;2.78;;
33505;SDS011;19843;51.040;13.782;2023-07-13T05:09:28;5.63;;;2.70;;
33505;SDS011;19843;51.040;13.782;2023-07-13T05:11:55;4.43;;;2.80;;
33505;SDS011;19843;51.040;13.782;2023-07-13T05:14:22;3.30;;;2.55;;
33505;SDS011;19843;51.040;13.782;2023-07-13T05:16:50;3.38;;;2.50;;
33505;SDS011;19843;51.040;13.782;2023-07-13T05:19:17;6.18;;;2.92;;
33505;SDS011;19843;51.040;13.782;2023-07-13T05:21:46;3.50;;;2.50;;
33505;SDS011;19843;51.040;13.782;2023-07-13T05:24:13;2.95;;;2.65;;
33505;SDS011;19843;51.040;13.782;2023-07-13T05:26:50;3.20;;;2.60;;
33505;SDS011;19843;51.040;13.782;2023-07-13T05:29:17;3.10;;;2.58;;
33505;SDS011;19843;51.040;13.782;2023-07-13T05:31:45;3.30;;;2.97;;
33505;SDS011;19843;51.040;13.782;2023-07-13T05:34:13;3.50;;;2.70;;
33505;SDS011;19843;51.040;13.782;2023-07-13T05:36:42;2.72;;;2.53;;
33505;SDS011;19843;51.040;13.782;2023-07-13T05:39:11;2.55;;;2.35;;
33505;SDS011;19843;51.040;13.782;2023-07-13T05:41:39;2.58;;;2.38;;
33505;SDS011;19843;51.040;13.782;2023-07-13T05:44:07;3.13;;;2.55;;
33505;SDS011;19843;51.040;13.782;2023-07-13T05:46:34;2.85;;;2.55;;
33505;SDS011;19843;51.040;13.782;2023-07-13T05:49:02;4.25;;;2.30;;
33505;SDS011;19843;51.040;13.782;2023-07-13T05:51:30;3.22;;;2.92;;
33505;SDS011;19843;51.040;13.782;2023-07-13T05:54:00;4.57;;;2.70;;
33505;SDS011;19843;51.040;13.782;2023-07-13T05:56:29;4.03;;;3.00;;
33505;SDS011;19843;51.040;13.782;2023-07-13T05:58:56;3.70;;;2.65;;
33505;SDS011;19843;51.040;13.782;2023-07-13T06:01:24;2.70;;;2.47;;
33505;SDS011;19843;51.040;13.782;2023-07-13T06:03:51;2.60;;;2.38;;
33505;SDS011;19843;51.040;13.782;2023-07-13T06:06:19;3.03;;;2.70;;
33505;SDS011;19843;51.040;13.782;2023-07-13T06:08:46;3.10;;;2.80;;
33505;SDS011;19843;51.040;13.782;2023-07-13T06:11:15;5.88;;;2.90;;
33505;SDS011;19843;51.040;13.782;2023-07-13T06:13:45;3.88;;;2.38;;
33505;SDS011;19843;51.040;13.782;2023-07-13T06:16:13;4.88;;;2.53;;
33505;SDS011;19843;51.040;13.782;2023-07-13T06:18:41;4.28;;;2.60;;
33505;SDS011;19843;51.040;13.782;2023-07-13T06:21:09;5.88;;;2.70;;
33505;SDS011;19843;51.040;13.782;2023-07-13T06:23:39;2.80;;;2.50;;
33505;SDS011;19843;51.040;13.782;2023-07-13T06:26:06;3.70;;;2.20;;
33505;SDS011;19843;51.040;13.782;2023-07-13T06:28:35;2.33;;;2.10;;
33505;SDS011;19843;51.040;13.782;2023-07-13T06:31:06;2.55;;;2.20;;
33505;SDS011;19843;51.040;13.782;2023-07-13T06:33:35;3.50;;;2.58;;
33505;SDS011;19843;51.040;13.782;2023-07-13T06:36:03;3.38;;;2.20;;
33505;SDS011;19843;51.040;13.782;2023-07-13T06:38:33;2.75;;;2.20;;
33505;SDS011;19843;51.040;13.782;2023-07-13T06:41:01;2.20;;;2.00;;
33505;SDS011;19843;51.040;13.782;2023-07-13T06:43:29;4.50;;;2.25;;
33505;SDS011;19843;51.040;13.782;2023-07-13T06:45:58;5.28;;;2.45;;
33505;SDS011;19843;51.040;13.782;2023-07-13T06:48:27;3.03;;;2.20;;
33505;SDS011;19843;51.040;13.782;2023-07-13T06:50:55;2.83;;;2.05;;
33505;SDS011;19843;51.040;13.782;2023-07-13T06:53:23;2.22;;;1.92;;
33505;SDS011;19843;51.040;13.782;2023-07-13T06:55:53;1.92;;;1.75;;
33505;SDS011;19843;51.040;13.782;2023-07-13T06:58:20;3.70;;;2.17;;
33505;SDS011;19843;51.040;13.782;2023-07-13T07:00:51;6.07;;;2.20;;
33505;SDS011;19843;51.040;13.782;2023-07-13T07:03:19;10.80;;;2.58;;
33505;SDS011;19843;51.040;13.782;2023-07-13T07:05:48;2.70;;;2.38;;
33505;SDS011;19843;51.040;13.782;2023-07-13T07:08:16;2.05;;;1.85;;
33505;SDS011;19843;51.040;13.782;2023-07-13T07:10:44;2.33;;;2.00;;
33505;SDS011;19843;51.040;13.782;2023-07-13T07:13:17;2.20;;;2.00;;
33505;SDS011;19843;51.040;13.782;2023-07-13T07:15:45;3.58;;;2.30;;
33505;SDS011;19843;51.040;13.782;2023-07-13T07:18:12;3.15;;;2.40;;
33505;SDS011;19843;51.040;13.782;2023-07-13T07:20:39;3.85;;;2.25;;
33505;SDS011;19843;51.040;13.782;2023-07-13T07:23:08;2.75;;;2.28;;
33505;SDS011;19843;51.040;13.782;2023-07-13T07:25:36;2.40;;;1.85;;
33505;SDS011;19843;51.040;13.782;2023-07-13T07:28:08;6.88;;;2.10;;
33505;SDS011;19843;51.040;13.782;2023-07-13T07:30:41;2.13;;;1.92;;
33505;SDS011;19843;51.040;13.782;2023-07-13T07:33:12;4.00;;;2.08;;
33505;SDS011;19843;51.040;13.782;2023-07-13T07:35:39;4.95;;;2.10;;
33505;SDS011;19843;51.040;13.782;2023-07-13T07:38:29;3.08;;;2.05;;
33505;SDS011;19843;51.040;13.782;2023-07-13T07:40:56;3.95;;;1.90;;
33505;SDS011;19843;51.040;13.782;2023-07-13T07:43:27;2.42;;;1.63;;
33505;SDS011;19843;51.040;13.782;2023-07-13T07:45:54;2.35;;;2.15;;
33505;SDS011;19843;51.040;13.782;2023-07-13T07:48:22;3.28;;;2.05;;
33505;SDS011;19843;51.040;13.782;2023-07-13T07:50:49;2.28;;;2.03;;
33505;SDS011;19843;51.040;13.782;2023-07-13T07:53:17;1.40;;;1.30;;
33505;SDS011;19843;51.040;13.782;2023-07-13T07:55:45;2.03;;;1.73;;
33505;SDS011;19843;51.040;13.782;2023-07-13T07:58:16;2.90;;;1.60;;
33505;SDS011;19843;51.040;13.782;2023-07-13T08:01:04;6.15;;;2.17;;
33505;SDS011;19843;51.040;13.782;2023-07-13T08:03:37;4.28;;;1.95;;
33505;SDS011;19843;51.040;13.782;2023-07-13T08:06:08;2.33;;;1.83;;
33505;SDS011;19843;51.040;13.782;2023-07-13T08:08:38;1.80;;;1.70;;
33505;SDS011;19843;51.040;13.782;2023-07-13T08:11:08;1.50;;;1.40;;
33505;SDS011;19843;51.040;13.782;2023-07-13T08:13:38;2.30;;;1.55;;
33505;SDS011;19843;51.040;13.782;2023-07-13T08:16:06;1.73;;;1.63;;
33505;SDS011;19843;51.040;13.782;2023-07-13T08:18:34;3.45;;;1.85;;
33505;SDS011;19843;51.040;13.782;2023-07-13T08:21:02;2.95;;;1.75;;
33505;SDS011;19843;51.040;13.782;2023-07-13T08:23:31;1.52;;;1.42;;
33505;SDS011;19843;51.040;13.782;2023-07-13T08:25:59;2.33;;;1.52;;
33505;SDS011;19843;51.040;13.782;2023-07-13T08:28:29;2.03;;;1.58;;
33505;SDS011;19843;51.040;13.782;2023-07-13T08:31:00;2.65;;;2.05;;
33505;SDS011;19843;51.040;13.782;2023-07-13T08:33:28;3.25;;;2.13;;
33505;SDS011;19843;51.040;13.782;2023-07-13T08:35:55;2.50;;;1.77;;
33505;SDS011;19843;51.040;13.782;2023-07-13T08:38:23;1.80;;;1.65;;
33505;SDS011;19843;51.040;13.782;2023-07-13T08:40:51;1.65;;;1.55;;
33505;SDS011;19843;51.040;13.782;2023-07-13T08:43:23;3.15;;;2.20;;
33505;SDS011;19843;51.040;13.782;2023-07-13T08:45:56;2.05;;;1.45;;
33505;SDS011;19843;51.040;13.782;2023-07-13T08:48:28;1.83;;;1.73;;
33505;SDS011;19843;51.040;13.782;2023-07-13T08:51:02;2.83;;;2.03;;
33505;SDS011;19843;51.040;13.782;2023-07-13T08:53:48;2.88;;;2.00;;
33505;SDS011;19843;51.040;13.782;2023-07-13T08:56:17;5.20;;;2.08;;
33505;SDS011;19843;51.040;13.782;2023-07-13T08:58:47;1.88;;;1.77;;
33505;SDS011;19843;51.040;13.782;2023-07-13T09:01:23;2.30;;;2.10;;
33505;SDS011;19843;51.040;13.782;2023-07-13T09:03:56;2.28;;;1.98;;
33505;SDS011;19843;51.040;13.782;2023-07-13T09:06:34;1.98;;;1.88;;
33505;SDS011;19843;51.040;13.782;2023-07-13T09:09:10;2.25;;;1.80;;
33505;SDS011;19843;51.040;13.782;2023-07-13T09:11:49;1.50;;;1.40;;
33505;SDS011;19843;51.040;13.782;2023-07-13T09:14:33;2.33;;;1.80;;
33505;SDS011;19843;51.040;13.782;2023-07-13T09:17:20;2.83;;;1.63;;
33505;SDS011;19843;51.040;13.782;2023-07-13T09:19:53;1.70;;;1.60;;
33505;SDS011;19843;51.040;13.782;2023-07-13T09:22:24;1.70;;;1.60;;
33505;SDS011;19843;51.040;13.782;2023-07-13T09:24:57;2.50;;;1.75;;
33505;SDS011;19843;51.040;13.782;2023-07-13T09:27:30;2.58;;;1.83;;
33505;SDS011;19843;51.040;13.782;2023-07-13T09:30:15;1.83;;;1.73;;
33505;SDS011;19843;51.040;13.782;2023-07-13T09:32:54;2.83;;;1.80;;
33505;SDS011;19843;51.040;13.782;2023-07-13T09:35:26;2.65;;;1.90;;
33505;SDS011;19843;51.040;13.782;2023-07-13T09:37:59;2.53;;;1.98;;
33505;SDS011;19843;51.040;13.782;2023-07-13T09:40:40;2.53;;;2.22;;
33505;SDS011;19843;51.040;13.782;2023-07-13T09:43:15;2.08;;;1.85;;
33505;SDS011;19843;51.040;13.782;2023-07-13T09:45:46;2.47;;;1.92;;
33505;SDS011;19843;51.040;13.782;2023-07-13T09:48:16;1.95;;;1.85;;
33505;SDS011;19843;51.040;13.782;2023-07-13T09:50:44;1.75;;;1.58;;
33505;SDS011;19843;51.040;13.782;2023-07-13T09:53:13;6.25;;;2.00;;
33505;SDS011;19843;51.040;13.782;2023-07-13T09:55:42;2.72;;;1.60;;
33505;SDS011;19843;51.040;13.782;2023-07-13T09:58:12;2.38;;;1.63;;
33505;SDS011;19843;51.040;13.782;2023-07-13T10:00:42;3.10;;;2.00;;
33505;SDS011;19843;51.040;13.782;2023-07-13T10:03:17;2.40;;;1.75;;
33505;SDS011;19843;51.040;13.782;2023-07-13T10:05:47;2.05;;;1.88;;
33505;SDS011;19843;51.040;13.782;2023-07-13T10:08:18;2.42;;;2.05;;
33505;SDS011;19843;51.040;13.782;2023-07-13T10:10:52;3.70;;;2.00;;
33505;SDS011;19843;51.040;13.782;2023-07-13T10:13:29;1.90;;;1.77;;
33505;SDS011;19843;51.040;13.782;2023-07-13T10:16:00;1.90;;;1.77;;
33505;SDS011;19843;51.040;13.782;2023-07-13T10:18:35;2.30;;;1.80;;
33505;SDS011;19843;51.040;13.782;2023-07-13T10:21:12;4.50;;;1.40;;
33505;SDS011;19843;51.040;13.782;2023-07-13T10:23:47;2.83;;;2.05;;
33505;SDS011;19843;51.040;13.782;2023-07-13T10:26:19;1.95;;;1.73;;
33505;SDS011;19843;51.040;13.782;2023-07-13T10:28:51;2.00;;;1.90;;
33505;SDS011;19843;51.040;13.782;2023-07-13T10:31:21;2.00;;;1.70;;
33505;SDS011;19843;51.040;13.782;2023-07-13T10:33:51;1.73;;;1.50;;
33505;SDS011;19843;51.040;13.782;2023-07-13T10:36:21;5.07;;;2.10;;
33505;SDS011;19843;51.040;13.782;2023-07-13T10:38:59;2.10;;;2.00;;
33505;SDS011;19843;51.040;13.782;2023-07-13T10:41:30;3.60;;;2.00;;
33505;SDS011;19843;51.040;13.782;2023-07-13T10:43:59;3.92;;;2.10;;
33505;SDS011;19843;51.040;13.782;2023-07-13T10:46:29;2.47;;;2.13;;
33505;SDS011;19843;51.040;13.782;2023-07-13T10:48:59;2.97;;;1.88;;
33505;SDS011;19843;51.040;13.782;2023-07-13T10:51:30;2.25;;;1.85;;
33505;SDS011;19843;51.040;13.782;2023-07-13T10:54:10;2.33;;;2.13;;
33505;SDS011;19843;51.040;13.782;2023-07-13T10:56:46;1.70;;;1.60;;
33505;SDS011;19843;51.040;13.782;2023-07-13T10:59:17;1.80;;;1.70;;
33505;SDS011;19843;51.040;13.782;2023-07-13T11:01:54;2.45;;;1.80;;
33505;SDS011;19843;51.040;13.782;2023-07-13T11:04:26;2.88;;;1.80;;
33505;SDS011;19843;51.040;13.782;2023-07-13T11:06:57;2.20;;;1.70;;
33505;SDS011;19843;51.040;13.782;2023-07-13T11:09:34;1.92;;;1.70;;
33505;SDS011;19843;51.040;13.782;2023-07-13T11:12:06;1.65;;;1.38;;
33505;SDS011;19843;51.040;13.782;2023-07-13T11:14:42;1.40;;;1.30;;
33505;SDS011;19843;51.040;13.782;2023-07-13T11:17:34;3.97;;;1.40;;
33505;SDS011;19843;51.040;13.782;2023-07-13T11:20:10;1.75;;;1.63;;
33505;SDS011;19843;51.040;13.782;2023-07-13T11:22:50;2.05;;;1.55;;
33505;SDS011;19843;51.040;13.782;2023-07-13T11:25:27;1.70;;;1.60;;
33505;SDS011;19843;51.040;13.782;2023-07-13T11:28:06;7.15;;;1.88;;
33505;SDS011;19843;51.040;13.782;2023-07-13T11:30:49;2.13;;;1.80;;
33505;SDS011;19843;51.040;13.782;2023-07-13T11:33:27;2.80;;;1.90;;
33505;SDS011;19843;51.040;13.782;2023-07-13T11:36:00;2.75;;;2.08;;
33505;SDS011;19843;51.040;13.782;2023-07-13T11:38:33;2.25;;;1.90;;
33505;SDS011;19843;51.040;13.782;2023-07-13T11:41:04;2.65;;;2.25;;
33505;SDS011;19843;51.040;13.782;2023-07-13T11:43:33;2.15;;;2.05;;
33505;SDS011;19843;51.040;13.782;2023-07-13T11:46:12;2.28;;;2.05;;
33505;SDS011;19843;51.040;13.782;2023-07-13T11:48:41;2.13;;;2.03;;
33505;SDS011;19843;51.040;13.782;2023-07-13T11:51:17;2.25;;;2.05;;
33505;SDS011;19843;51.040;13.782;2023-07-13T11:53:49;1.80;;;1.70;;
33505;SDS011;19843;51.040;13.782;2023-07-13T11:56:23;3.75;;;2.10;;
33505;SDS011;19843;51.040;13.782;2023-07-13T11:58:54;2.10;;;2.00;;
33505;SDS011;19843;51.040;13.782;2023-07-13T12:01:23;2.72;;;2.15;;
33505;SDS011;19843;51.040;13.782;2023-07-13T12:03:55;2.72;;;2.10;;
33505;SDS011;19843;51.040;13.782;2023-07-13T12:06:27;2.42;;;2.17;;
33505;SDS011;19843;51.040;13.782;2023-07-13T12:08:57;2.55;;;2.13;;
33505;SDS011;19843;51.040;13.782;2023-07-13T12:11:25;2.28;;;1.98;;
33505;SDS011;19843;51.040;13.782;2023-07-13T12:13:53;1.80;;;1.70;;
33505;SDS011;19843;51.040;13.782;2023-07-13T12:16:23;1.92;;;1.83;;
33505;SDS011;19843;51.040;13.782;2023-07-13T12:18:55;2.67;;;1.92;;
33505;SDS011;19843;51.040;13.782;2023-07-13T12:21:26;1.98;;;1.85;;
33505;SDS011;19843;51.040;13.782;2023-07-13T12:23:59;2.70;;;1.65;;
33505;SDS011;19843;51.040;13.782;2023-07-13T12:26:28;1.95;;;1.75;;
33505;SDS011;19843;51.040;13.782;2023-07-13T12:28:58;3.00;;;1.80;;
33505;SDS011;19843;51.040;13.782;2023-07-13T12:31:33;2.45;;;2.10;;
33505;SDS011;19843;51.040;13.782;2023-07-13T12:34:03;4.43;;;2.00;;
33505;SDS011;19843;51.040;13.782;2023-07-13T12:36:36;1.80;;;1.65;;
33505;SDS011;19843;51.040;13.782;2023-07-13T12:39:12;3.58;;;1.98;;
33505;SDS011;19843;51.040;13.782;2023-07-13T12:41:41;2.00;;;1.80;;
33505;SDS011;19843;51.040;13.782;2023-07-13T12:44:13;1.70;;;1.60;;
33505;SDS011;19843;51.040;13.782;2023-07-13T12:46:52;1.85;;;1.50;;
33505;SDS011;19843;51.040;13.782;2023-07-13T12:49:23;2.42;;;1.67;;
33505;SDS011;19843;51.040;13.782;2023-07-13T12:51:57;2.35;;;2.15;;
33505;SDS011;19843;51.040;13.782;2023-07-13T12:54:26;3.35;;;1.92;;
33505;SDS011;19843;51.040;13.782;2023-07-13T12:56:54;1.98;;;1.70;;
33505;SDS011;19843;51.040;13.782;2023-07-13T12:59:27;2.20;;;2.00;;
33505;SDS011;19843;51.040;13.782;2023-07-13T13:02:04;1.63;;;1.52;;
33505;SDS011;19843;51.040;13.782;2023-07-13T13:04:55;2.10;;;1.88;;
33505;SDS011;19843;51.040;13.782;2023-07-13T13:07:25;2.17;;;1.73;;
33505;SDS011;19843;51.040;13.782;2023-07-13T13:09:53;2.50;;;1.92;;
33505;SDS011;19843;51.040;13.782;2023-07-13T13:12:21;3.63;;;1.70;;
33505;SDS011;19843;51.040;13.782;2023-07-13T13:14:50;1.80;;;1.70;;
33505;SDS011;19843;51.040;13.782;2023-07-13T13:17:19;1.65;;;1.55;;
33505;SDS011;19843;51.040;13.782;2023-07-13T13:19:51;2.60;;;1.75;;
33505;SDS011;19843;51.040;13.782;2023-07-13T13:22:20;2.00;;;1.83;;
33505;SDS011;19843;51.040;13.782;2023-07-13T13:24:49;2.10;;;1.70;;
33505;SDS011;19843;51.040;13.782;2023-07-13T13:27:17;3.15;;;1.65;;
33505;SDS011;19843;51.040;13.782;2023-07-13T13:29:47;2.05;;;1.60;;
33505;SDS011;19843;51.040;13.782;2023-07-13T13:32:17;1.85;;;1.70;;
33505;SDS011;19843;51.040;13.782;2023-07-13T13:34:49;1.67;;;1.58;;
33505;SDS011;19843;51.040;13.782;2023-07-13T13:37:18;3.55;;;1.83;;
33505;SDS011;19843;51.040;13.782;2023-07-13T13:39:47;1.65;;;1.50;;
33505;SDS011;19843;51.040;13.782;2023-07-13T13:42:33;1.50;;;1.40;;
33505;SDS011;19843;51.040;13.782;2023-07-13T13:45:01;3.88;;;1.90;;
33505;SDS011;19843;51.040;13.782;2023-07-13T13:47:29;1.95;;;1.60;;
33505;SDS011;19843;51.040;13.782;2023-07-13T13:49:59;1.83;;;1.58;;
33505;SDS011;19843;51.040;13.782;2023-07-13T13:52:27;2.03;;;1.65;;
33505;SDS011;19843;51.040;13.782;2023-07-13T13:54:58;4.30;;;1.42;;
33505;SDS011;19843;51.040;13.782;2023-07-13T13:57:26;2.42;;;1.48;;
33505;SDS011;19843;51.040;13.782;2023-07-13T13:59:55;2.80;;;1.70;;
33505;SDS011;19843;51.040;13.782;2023-07-13T14:02:24;1.58;;;1.48;;
33505;SDS011;19843;51.040;13.782;2023-07-13T14:04:54;1.63;;;1.52;;
33505;SDS011;19843;51.040;13.782;2023-07-13T14:07:25;3.85;;;2.08;;
33505;SDS011;19843;51.040;13.782;2023-07-13T14:09:54;2.28;;;1.77;;
33505;SDS011;19843;51.040;13.782;2023-07-13T14:12:24;4.20;;;1.65;;
33505;SDS011;19843;51.040;13.782;2023-07-13T14:14:54;1.65;;;1.55;;
33505;SDS011;19843;51.040;13.782;2023-07-13T14:17:25;2.70;;;1.80;;
33505;SDS011;19843;51.040;13.782;2023-07-13T14:19:54;1.70;;;1.60;;
33505;SDS011;19843;51.040;13.782;2023-07-13T14:22:23;2.45;;;1.65;;
33505;SDS011;19843;51.040;13.782;2023-07-13T14:24:52;3.13;;;1.60;;
33505;SDS011;19843;51.040;13.782;2023-07-13T14:27:20;3.65;;;1.70;;
33505;SDS011;19843;51.040;13.782;2023-07-13T14:29:50;2.00;;;1.80;;
33505;SDS011;19843;51.040;13.782;2023-07-13T14:32:17;1.77;;;1.55;;
33505;SDS011;19843;51.040;13.782;2023-07-13T14:34:45;2.10;;;1.73;;
33505;SDS011;19843;51.040;13.782;2023-07-13T14:37:13;2.28;;;1.50;;
33505;SDS011;19843;51.040;13.782;2023-07-13T14:39:43;1.52;;;1.38;;
33505;SDS011;19843;51.040;13.782;2023-07-13T14:42:12;2.28;;;1.70;;
33505;SDS011;19843;51.040;13.782;2023-07-13T14:44:39;2.65;;;1.48;;
33505;SDS011;19843;51.040;13.782;2023-07-13T14:47:08;5.30;;;1.77;;
33505;SDS011;19843;51.040;13.782;2023-07-13T14:49:38;2.10;;;1.85;;
33505;SDS011;19843;51.040;13.782;2023-07-13T14:52:11;2.53;;;1.58;;